Time;durP1;ratioP1;P1;durP2;ratioP2;P2;SDS_P1;SDS_P2;PMS_P1;PMS_P2;Temp;Humidity;BMP_temperature;BMP_pressure;BME280_temperature;BME280_humidity;BME280_pressure;Samples;Min_cycle;Max_cycle;Signal;HPM_P1;HPM_P2
2022/11/13 00:00:35;;;;;;;25.97;18.30;;;7.50;99.90;;;;;;5032630;28;20214;-76
2022/11/13 00:03:03;;;;;;;23.77;19.53;;;7.50;99.90;;;;;;5032579;28;20221;-76
2022/11/13 00:05:30;;;;;;;22.27;18.13;;;7.50;99.90;;;;;;5033134;28;20289;-77
2022/11/13 00:07:57;;;;;;;18.87;16.87;;;7.50;99.90;;;;;;5041661;28;20225;-77
2022/11/13 00:10:24;;;;;;;21.23;17.47;;;7.50;99.90;;;;;;5052042;28;20218;-77
2022/11/13 00:12:52;;;;;;;22.73;18.77;;;7.50;99.90;;;;;;5033880;28;20230;-77
2022/11/13 00:15:19;;;;;;;19.03;15.77;;;7.50;99.90;;;;;;5032527;28;20205;-77
2022/11/13 00:17:46;;;;;;;20.23;16.30;;;7.50;99.90;;;;;;5031948;28;20209;-77
2022/11/13 00:20:14;;;;;;;19.70;15.53;;;7.50;99.90;;;;;;5032642;28;20289;-77
2022/11/13 00:22:41;;;;;;;19.03;15.40;;;7.50;99.90;;;;;;5033164;28;20202;-76
2022/11/13 00:25:09;;;;;;;20.40;16.17;;;7.50;99.90;;;;;;5031178;28;20844;-76
2022/11/13 00:27:35;;;;;;;19.63;15.50;;;7.50;99.90;;;;;;5031805;28;20302;-80
2022/11/13 00:30:02;;;;;;;18.73;15.13;;;7.50;99.90;;;;;;5032290;28;20634;-77
2022/11/13 00:32:29;;;;;;;18.17;14.93;;;7.50;99.90;;;;;;5032190;28;20281;-77
2022/11/13 00:34:56;;;;;;;22.43;15.17;;;7.50;99.90;;;;;;5032449;28;20276;-76
2022/11/13 00:37:24;;;;;;;17.07;14.60;;;7.50;99.90;;;;;;5031772;28;20638;-77
2022/11/13 00:39:51;;;;;;;17.73;14.73;;;7.50;99.90;;;;;;5032919;28;20198;-77
2022/11/13 00:42:18;;;;;;;15.87;13.57;;;7.50;99.90;;;;;;5032398;28;20293;-77
2022/11/13 00:44:45;;;;;;;18.43;14.40;;;7.50;99.90;;;;;;5031627;28;20701;-77
2022/11/13 00:47:12;;;;;;;18.93;15.10;;;7.50;99.90;;;;;;5032149;28;20222;-77
2022/11/13 00:49:39;;;;;;;17.97;15.10;;;7.50;99.90;;;;;;5032044;28;20234;-77
2022/11/13 00:52:06;;;;;;;17.93;13.30;;;7.50;99.90;;;;;;5031612;28;20187;-77
2022/11/13 00:54:34;;;;;;;17.07;13.90;;;7.50;99.90;;;;;;5032146;28;20195;-77
2022/11/13 00:57:01;;;;;;;17.07;13.67;;;7.50;99.90;;;;;;5041251;28;20217;-77
2022/11/13 00:59:28;;;;;;;17.00;13.73;;;7.50;99.90;;;;;;5051081;28;20201;-77
2022/11/13 01:01:55;;;;;;;16.00;13.90;;;7.50;99.90;;;;;;5052048;28;20213;-77
2022/11/13 01:04:22;;;;;;;17.40;14.30;;;7.40;99.90;;;;;;5044840;28;20214;-77
2022/11/13 01:06:49;;;;;;;18.03;14.27;;;7.50;99.90;;;;;;5031609;28;20201;-76
2022/11/13 01:09:15;;;;;;;19.37;14.83;;;7.40;99.90;;;;;;5031867;28;20213;-76
2022/11/13 01:11:44;;;;;;;20.43;15.87;;;7.40;99.90;;;;;;5031996;28;20491;-77
2022/11/13 01:14:10;;;;;;;18.10;16.00;;;7.40;99.90;;;;;;5030993;28;20281;-77
2022/11/13 01:16:37;;;;;;;20.97;16.33;;;7.40;99.90;;;;;;5031192;28;20209;-77
2022/11/13 01:19:04;;;;;;;17.70;14.83;;;7.30;99.90;;;;;;5031176;28;20549;-77
2022/11/13 01:21:31;;;;;;;16.37;14.07;;;7.30;99.90;;;;;;5031090;28;20201;-77
2022/11/13 01:23:58;;;;;;;16.07;12.73;;;7.30;99.90;;;;;;5033874;28;20199;-76
2022/11/13 01:26:27;;;;;;;13.10;11.70;;;7.20;99.90;;;;;;5035342;28;20449;-79
2022/11/13 01:28:58;;;;;;;13.63;11.83;;;7.30;99.90;;;;;;5035750;28;20230;-77
2022/11/13 01:31:26;;;;;;;14.63;12.70;;;7.20;99.90;;;;;;5035834;28;20194;-77
2022/11/13 01:33:53;;;;;;;14.70;12.50;;;7.20;99.90;;;;;;5039825;28;20201;-76
2022/11/13 01:36:22;;;;;;;12.93;11.53;;;7.20;99.90;;;;;;5053722;28;20202;-76
2022/11/13 01:38:49;;;;;;;12.50;10.67;;;7.20;99.90;;;;;;5056050;28;20194;-76
2022/11/13 01:41:19;;;;;;;14.17;11.60;;;7.10;99.90;;;;;;5055091;28;20201;-77
2022/11/13 01:43:46;;;;;;;13.57;11.30;;;7.10;99.90;;;;;;5053683;28;20217;-77
2022/11/13 01:46:30;;;;;;;13.30;11.03;;;7.10;99.90;;;;;;5035739;28;20209;-77
2022/11/13 01:49:12;;;;;;;14.13;12.07;;;7.10;99.90;;;;;;5034635;28;20218;-77
2022/11/13 01:51:42;;;;;;;11.97;10.23;;;7.20;99.90;;;;;;5035196;28;20214;-77
2022/11/13 01:54:13;;;;;;;13.23;10.87;;;7.20;99.90;;;;;;5035200;28;20302;-77
2022/11/13 01:56:40;;;;;;;14.33;12.13;;;7.20;99.90;;;;;;5034966;28;20631;-77
2022/11/13 01:59:11;;;;;;;16.93;14.10;;;7.20;99.90;;;;;;5035021;28;20198;-77
2022/11/13 02:01:40;;;;;;;16.17;13.10;;;7.20;99.90;;;;;;5034802;28;20221;-77
2022/11/13 02:04:07;;;;;;;13.90;11.83;;;7.20;99.90;;;;;;5034929;28;20587;-76
2022/11/13 02:06:38;;;;;;;14.57;12.33;;;7.30;99.90;;;;;;5035148;28;20217;-81
2022/11/13 02:09:06;;;;;;;15.47;12.47;;;7.30;99.90;;;;;;5034699;28;20218;-77
2022/11/13 02:11:32;;;;;;;16.97;12.47;;;7.30;99.90;;;;;;5035005;28;20210;-78
2022/11/13 02:14:01;;;;;;;16.47;12.80;;;7.30;99.90;;;;;;5034966;28;20653;-77
2022/11/13 02:16:33;;;;;;;14.10;11.77;;;7.30;99.90;;;;;;5033937;28;20210;-77
2022/11/13 02:19:03;;;;;;;15.77;12.27;;;7.30;99.90;;;;;;5035074;28;20282;-77
2022/11/13 02:21:36;;;;;;;15.47;11.87;;;7.30;99.90;;;;;;5034604;28;20206;-77
2022/11/13 02:24:16;;;;;;;14.57;11.70;;;7.30;99.90;;;;;;5034062;28;20199;-77
2022/11/13 02:26:44;;;;;;;13.63;12.17;;;7.30;99.90;;;;;;5035033;28;20281;-77
2022/11/13 02:29:10;;;;;;;12.53;10.93;;;7.40;99.90;;;;;;5034551;28;20238;-77
2022/11/13 02:31:37;;;;;;;12.80;10.33;;;7.40;99.90;;;;;;5034362;28;20202;-77
2022/11/13 02:34:04;;;;;;;14.00;11.03;;;7.40;99.90;;;;;;5034036;28;20626;-77
2022/11/13 02:36:31;;;;;;;11.70;10.50;;;7.40;99.90;;;;;;5034237;28;20508;-78
2022/11/13 02:39:02;;;;;;;14.63;11.23;;;7.40;99.90;;;;;;5033960;28;20203;-77
2022/11/13 02:41:30;;;;;;;12.40;9.93;;;7.40;99.90;;;;;;5034744;28;20195;-78
2022/11/13 02:43:57;;;;;;;11.43;9.90;;;7.40;99.90;;;;;;5033584;28;20784;-77
2022/11/13 02:46:23;;;;;;;11.67;9.93;;;7.40;99.90;;;;;;5040692;28;20206;-77
2022/11/13 02:48:50;;;;;;;12.00;9.53;;;7.40;99.90;;;;;;5054113;28;20224;-77
2022/11/13 02:51:17;;;;;;;12.17;10.60;;;7.40;99.90;;;;;;5052688;28;20240;-77
2022/11/13 02:53:44;;;;;;;13.60;10.67;;;7.40;99.90;;;;;;5044489;28;20207;-77
2022/11/13 02:56:11;;;;;;;12.30;11.00;;;7.40;99.90;;;;;;5034104;28;20199;-76
2022/11/13 02:58:39;;;;;;;11.90;10.17;;;7.40;99.90;;;;;;5033305;28;20201;-78
2022/11/13 03:01:06;;;;;;;15.43;11.13;;;7.40;99.90;;;;;;5033952;28;20220;-77
2022/11/13 03:03:33;;;;;;;15.57;11.40;;;7.40;99.90;;;;;;5034256;28;20198;-77
2022/11/13 03:06:01;;;;;;;14.70;11.23;;;7.40;99.90;;;;;;5033287;28;20202;-77
2022/11/13 03:08:28;;;;;;;14.10;11.43;;;7.40;99.90;;;;;;5033312;28;20230;-77
2022/11/13 03:10:55;;;;;;;13.60;11.53;;;7.40;99.90;;;;;;5034057;28;20198;-77
2022/11/13 03:13:22;;;;;;;14.03;10.70;;;7.40;99.90;;;;;;5033482;28;20206;-77
2022/11/13 03:15:50;;;;;;;13.00;11.23;;;7.40;99.90;;;;;;5034188;28;20203;-75
2022/11/13 03:18:17;;;;;;;11.90;10.60;;;7.40;99.90;;;;;;5033886;28;20199;-77
2022/11/13 03:20:44;;;;;;;14.17;10.80;;;7.40;99.90;;;;;;5033227;28;20293;-77
2022/11/13 03:23:11;;;;;;;14.20;11.53;;;7.40;99.90;;;;;;5033590;28;20301;-77
2022/11/13 03:25:38;;;;;;;13.73;11.63;;;7.40;99.90;;;;;;5033653;28;20211;-78
2022/11/13 03:28:05;;;;;;;13.20;10.73;;;7.40;99.90;;;;;;5033217;28;20254;-78
2022/11/13 03:30:32;;;;;;;14.67;11.17;;;7.40;99.90;;;;;;5033704;28;20286;-76
2022/11/13 03:33:00;;;;;;;13.23;10.83;;;7.40;99.90;;;;;;5033287;28;20206;-77
2022/11/13 03:35:28;;;;;;;13.53;10.20;;;7.40;99.90;;;;;;5033045;28;20282;-77
2022/11/13 03:37:54;;;;;;;12.47;9.97;;;7.50;99.90;;;;;;5033268;28;20195;-77
2022/11/13 03:40:21;;;;;;;12.47;10.03;;;7.50;99.90;;;;;;5046650;28;20292;-77
2022/11/13 03:42:48;;;;;;;11.77;10.00;;;7.50;99.90;;;;;;5053206;28;20213;-77
2022/11/13 03:45:15;;;;;;;15.37;11.23;;;7.50;99.90;;;;;;5052564;28;20209;-77
2022/11/13 03:47:42;;;;;;;14.90;11.00;;;7.50;99.90;;;;;;5049156;28;20653;-77
2022/11/13 03:50:10;;;;;;;18.47;12.40;;;7.60;99.90;;;;;;5032759;28;20238;-76
2022/11/13 03:52:37;;;;;;;19.63;12.37;;;7.70;99.90;;;;;;5033053;28;20258;-77
2022/11/13 03:55:06;;;;;;;18.33;12.93;;;7.70;99.90;;;;;;5033531;28;20290;-77
2022/11/13 03:57:33;;;;;;;15.20;12.57;;;7.80;99.90;;;;;;5039575;28;20289;-77
2022/11/13 04:00:00;;;;;;;18.53;12.80;;;7.90;99.90;;;;;;5033273;28;20209;-77
2022/11/13 04:02:26;;;;;;;18.20;12.60;;;7.90;99.90;;;;;;5032251;28;20293;-77
2022/11/13 04:04:53;;;;;;;16.23;12.83;;;7.90;99.90;;;;;;5032616;28;20293;-77
2022/11/13 04:07:21;;;;;;;17.33;12.40;;;7.90;99.90;;;;;;5032589;28;20206;-77
2022/11/13 04:09:48;;;;;;;16.13;12.60;;;8.00;99.90;;;;;;5032514;28;20310;-78
2022/11/13 04:12:15;;;;;;;16.27;12.63;;;8.00;99.90;;;;;;5032485;28;20298;-76
2022/11/13 04:14:42;;;;;;;17.57;13.40;;;8.00;99.90;;;;;;5032842;28;20217;-77
2022/11/13 04:17:09;;;;;;;20.03;14.20;;;8.00;99.90;;;;;;5031659;28;20206;-77
2022/11/13 04:19:36;;;;;;;18.37;14.63;;;8.00;99.90;;;;;;5032524;28;20293;-77
2022/11/13 04:22:02;;;;;;;18.60;13.07;;;8.10;99.90;;;;;;5032265;28;20294;-78
2022/11/13 04:24:31;;;;;;;17.93;13.00;;;8.10;99.90;;;;;;5031189;28;20203;-76
2022/11/13 04:26:57;;;;;;;14.13;12.00;;;8.10;99.90;;;;;;5032247;28;20198;-77
2022/11/13 04:29:24;;;;;;;14.60;12.77;;;8.10;99.90;;;;;;5031638;28;20230;-77
2022/11/13 04:31:51;;;;;;;15.27;11.93;;;8.00;99.90;;;;;;5032698;28;20242;-77
2022/11/13 04:34:18;;;;;;;14.47;12.03;;;8.00;99.90;;;;;;5032168;28;20205;-77
2022/11/13 04:36:45;;;;;;;17.50;11.83;;;8.00;99.90;;;;;;5032016;28;20209;-77
2022/11/13 04:39:12;;;;;;;13.13;11.47;;;8.00;99.90;;;;;;5032428;28;20201;-77
2022/11/13 04:44:24;;;;;;;15.10;12.20;;;7.90;99.90;;;;;;5031244;28;20182;-77
2022/11/13 04:46:51;;;;;;;14.77;10.73;;;7.90;99.90;;;;;;5032376;28;20216;-76
2022/11/13 04:49:18;;;;;;;19.23;12.63;;;7.90;99.90;;;;;;5032056;28;20233;-77
2022/11/13 04:51:45;;;;;;;14.47;11.57;;;7.90;99.90;;;;;;5031468;28;20306;-77
2022/11/13 04:54:11;;;;;;;12.77;11.20;;;7.80;99.90;;;;;;5032406;28;20199;-77
2022/11/13 04:56:40;;;;;;;13.87;11.80;;;7.80;99.90;;;;;;5031685;28;20310;-77
2022/11/13 04:59:06;;;;;;;13.47;10.33;;;7.80;99.90;;;;;;5031693;28;20199;-77
2022/11/13 05:01:35;;;;;;;14.43;11.33;;;7.70;99.90;;;;;;5031811;28;20599;-77
2022/11/13 05:04:02;;;;;;;13.70;11.57;;;7.70;99.90;;;;;;5032106;28;20295;-77
2022/11/13 05:06:29;;;;;;;12.70;10.83;;;7.60;99.90;;;;;;5031440;28;20285;-77
2022/11/13 05:08:56;;;;;;;13.53;10.17;;;7.60;99.90;;;;;;5032082;28;20222;-77
2022/11/13 05:11:23;;;;;;;12.33;10.37;;;7.60;99.90;;;;;;5032185;28;20202;-77
2022/11/13 05:13:51;;;;;;;15.97;11.93;;;7.60;99.90;;;;;;5031467;28;20194;-78
2022/11/13 05:16:18;;;;;;;13.17;10.43;;;7.50;99.90;;;;;;5031307;28;20202;-78
2022/11/13 05:18:44;;;;;;;13.97;11.27;;;7.50;99.90;;;;;;5030727;28;20205;-77
2022/11/13 05:21:11;;;;;;;14.73;11.03;;;7.50;99.90;;;;;;5031074;28;20205;-77
2022/11/13 05:23:38;;;;;;;12.40;11.07;;;7.40;99.90;;;;;;5031821;28;20199;-77
2022/11/13 05:26:07;;;;;;;15.60;11.57;;;7.40;99.90;;;;;;5031432;28;20205;-78
2022/11/13 05:28:35;;;;;;;15.43;11.30;;;7.30;99.90;;;;;;5031630;28;20233;-78
2022/11/13 05:31:10;;;;;;;13.50;10.57;;;7.30;99.90;;;;;;5048923;28;20210;-77
2022/11/13 05:33:39;;;;;;;16.17;11.90;;;7.30;99.90;;;;;;5050896;28;20376;-78
2022/11/13 05:36:08;;;;;;;15.90;11.63;;;7.30;99.90;;;;;;5051472;28;20202;-78
2022/11/13 05:38:35;;;;;;;15.63;11.97;;;7.30;99.90;;;;;;5035296;28;20205;-78
2022/11/13 05:41:03;;;;;;;13.60;11.30;;;7.30;99.90;;;;;;5030578;28;20317;-79
2022/11/13 05:43:30;;;;;;;17.67;12.50;;;7.20;99.90;;;;;;5030944;28;20522;-78
2022/11/13 05:46:02;;;;;;;16.03;12.37;;;7.20;99.90;;;;;;5031520;28;20293;-78
2022/11/13 05:48:31;;;;;;;13.47;11.47;;;7.20;99.90;;;;;;5030943;28;20230;-78
2022/11/13 05:51:01;;;;;;;15.93;12.53;;;7.20;99.90;;;;;;5031123;28;20252;-78
2022/11/13 05:53:28;;;;;;;16.47;12.57;;;7.20;99.90;;;;;;5031139;28;20290;-78
2022/11/13 05:56:00;;;;;;;14.37;12.33;;;7.10;99.90;;;;;;5030576;28;20226;-78
2022/11/13 05:58:27;;;;;;;15.47;12.00;;;7.10;99.90;;;;;;5031575;28;20380;-78
2022/11/13 06:00:54;;;;;;;15.93;12.67;;;7.10;99.90;;;;;;5031013;28;20368;-78
2022/11/13 06:03:21;;;;;;;16.30;13.30;;;7.10;99.90;;;;;;5031574;28;20285;-78
2022/11/13 06:05:49;;;;;;;16.63;12.77;;;7.10;99.90;;;;;;5031289;28;20203;-77
2022/11/13 06:08:16;;;;;;;16.50;12.97;;;7.10;99.90;;;;;;5030778;28;20584;-77
2022/11/13 06:10:43;;;;;;;15.50;13.23;;;7.10;99.90;;;;;;5034920;28;20214;-78
2022/11/13 06:13:10;;;;;;;18.23;13.93;;;7.20;99.90;;;;;;5035074;28;20294;-77
2022/11/13 06:15:37;;;;;;;18.43;15.40;;;7.20;99.90;;;;;;5034328;28;20302;-78
2022/11/13 06:18:04;;;;;;;17.97;14.17;;;7.20;99.90;;;;;;5034650;28;20289;-77
2022/11/13 06:20:31;;;;;;;20.10;15.43;;;7.20;99.90;;;;;;5034889;28;20205;-79
2022/11/13 06:22:59;;;;;;;21.80;16.77;;;7.30;99.90;;;;;;5034050;28;20202;-78
2022/11/13 06:25:27;;;;;;;26.13;20.03;;;7.30;99.90;;;;;;5034844;28;20217;-78
2022/11/13 06:27:54;;;;;;;22.77;19.37;;;7.40;99.90;;;;;;5034799;28;20286;-78
2022/11/13 06:30:21;;;;;;;23.57;19.13;;;7.40;99.90;;;;;;5034289;28;20230;-78
2022/11/13 06:32:53;;;;;;;22.90;19.30;;;7.50;99.90;;;;;;5034698;28;20274;-78
2022/11/13 06:35:20;;;;;;;22.53;18.77;;;7.50;99.90;;;;;;5034542;28;20230;-77
2022/11/13 06:37:47;;;;;;;22.70;18.67;;;7.50;99.90;;;;;;5034149;28;20213;-78
2022/11/13 06:40:15;;;;;;;22.37;17.93;;;7.50;99.90;;;;;;5034718;28;20279;-77
2022/11/13 06:42:42;;;;;;;21.63;18.53;;;7.50;99.90;;;;;;5034467;28;20289;-78
2022/11/13 06:45:09;;;;;;;24.03;19.33;;;7.50;99.90;;;;;;5033949;28;20206;-78
2022/11/13 06:47:36;;;;;;;19.17;16.07;;;7.50;99.90;;;;;;5033939;28;20202;-77
2022/11/13 06:50:04;;;;;;;20.97;18.17;;;7.50;99.90;;;;;;5033717;28;20238;-76
2022/11/13 06:52:30;;;;;;;22.10;18.13;;;7.50;99.90;;;;;;5034194;28;20198;-77
2022/11/13 06:54:58;;;;;;;25.23;19.87;;;7.50;99.90;;;;;;5033797;28;20205;-77
2022/11/13 06:57:27;;;;;;;21.37;18.30;;;7.50;99.90;;;;;;5033220;28;20217;-78
2022/11/13 06:59:54;;;;;;;20.60;18.23;;;7.50;99.90;;;;;;5033736;28;20244;-77
2022/11/13 07:02:21;;;;;;;21.50;17.87;;;7.50;99.90;;;;;;5034015;28;20595;-78
2022/11/13 07:04:48;;;;;;;19.47;16.80;;;7.50;99.90;;;;;;5053058;28;20213;-78
2022/11/13 07:07:15;;;;;;;20.30;17.53;;;7.40;99.90;;;;;;5053850;28;20704;-78
2022/11/13 07:09:41;;;;;;;18.17;15.77;;;7.40;99.90;;;;;;5043322;28;20510;-77
2022/11/13 07:12:08;;;;;;;18.50;16.43;;;7.40;99.90;;;;;;5033527;28;20227;-78
2022/11/13 07:14:36;;;;;;;20.27;17.37;;;7.40;99.90;;;;;;5038275;28;20457;-80
2022/11/13 07:17:03;;;;;;;20.60;17.57;;;7.40;99.90;;;;;;5054296;28;20198;-78
2022/11/13 07:19:30;;;;;;;19.60;17.27;;;7.40;99.90;;;;;;5043369;28;20214;-78
2022/11/13 07:21:57;;;;;;;19.00;16.67;;;7.40;99.90;;;;;;5032751;28;20213;-77
2022/11/13 07:24:24;;;;;;;22.73;19.00;;;7.40;99.90;;;;;;5034055;28;20198;-78
2022/11/13 07:26:51;;;;;;;22.87;18.60;;;7.40;99.90;;;;;;5033713;28;20206;-78
2022/11/13 07:29:18;;;;;;;21.43;17.53;;;7.40;99.90;;;;;;5033005;28;20223;-79
2022/11/13 07:31:46;;;;;;;20.83;18.10;;;7.40;99.90;;;;;;5036590;28;20198;-78
2022/11/13 07:34:13;;;;;;;22.40;17.67;;;7.40;99.90;;;;;;5052339;28;20427;-78
2022/11/13 07:36:40;;;;;;;22.33;18.30;;;7.40;99.90;;;;;;5053353;28;20198;-78
2022/11/13 07:39:07;;;;;;;21.73;18.23;;;7.50;99.90;;;;;;5039845;28;20289;-78
2022/11/13 07:41:34;;;;;;;24.63;19.87;;;7.50;99.90;;;;;;5033216;28;20230;-78
2022/11/13 07:44:01;;;;;;;25.87;19.57;;;7.50;99.90;;;;;;5033242;28;20199;-79
2022/11/13 07:46:27;;;;;;;24.50;19.43;;;7.50;99.90;;;;;;5032688;28;20209;-79
2022/11/13 07:48:56;;;;;;;27.13;22.67;;;7.60;99.90;;;;;;5033114;28;20819;-79
2022/11/13 07:51:22;;;;;;;28.23;22.40;;;7.60;99.90;;;;;;5032928;28;20234;-77
2022/11/13 07:53:49;;;;;;;24.93;21.13;;;7.70;99.90;;;;;;5033058;28;20500;-78
2022/11/13 07:56:16;;;;;;;26.00;21.90;;;7.80;99.90;;;;;;5033658;28;20210;-78
2022/11/13 07:58:43;;;;;;;25.50;21.43;;;7.80;99.90;;;;;;5033257;28;20281;-80
2022/11/13 08:01:11;;;;;;;25.90;20.40;;;7.90;99.90;;;;;;5032822;28;20301;-81
2022/11/13 08:03:38;;;;;;;25.43;22.03;;;8.00;99.90;;;;;;5033468;28;20209;-78
2022/11/13 08:06:07;;;;;;;26.13;22.63;;;8.00;99.90;;;;;;5033473;28;20762;-79
2022/11/13 08:08:35;;;;;;;26.23;22.13;;;8.10;99.90;;;;;;5032929;28;20217;-78
2022/11/13 08:11:04;;;;;;;26.87;22.30;;;8.10;99.90;;;;;;5033385;28;20222;-81
2022/11/13 08:13:31;;;;;;;26.97;22.07;;;8.20;99.90;;;;;;5032866;28;20210;-81
2022/11/13 08:16:00;;;;;;;27.73;22.00;;;8.30;99.90;;;;;;5032733;28;20210;-79
2022/11/13 08:18:27;;;;;;;24.60;21.47;;;8.30;99.90;;;;;;5033200;28;20210;-79
2022/11/13 08:20:54;;;;;;;28.67;24.77;;;8.40;99.90;;;;;;5033355;28;20206;-79
2022/11/13 08:23:22;;;;;;;32.47;25.47;;;8.50;99.90;;;;;;5033211;28;20202;-80
2022/11/13 08:25:49;;;;;;;29.50;24.73;;;8.50;99.90;;;;;;5033324;28;20308;-79
2022/11/13 08:28:16;;;;;;;30.93;24.30;;;8.60;99.90;;;;;;5032585;28;20790;-79
2022/11/13 08:30:44;;;;;;;30.33;26.00;;;8.70;99.90;;;;;;5031823;28;20230;-79
2022/11/13 08:33:11;;;;;;;30.07;24.10;;;8.70;99.90;;;;;;5041650;28;20206;-79
2022/11/13 08:35:38;;;;;;;27.47;24.20;;;8.80;99.90;;;;;;5048191;28;20370;-79
2022/11/13 08:38:06;;;;;;;28.70;23.90;;;8.90;99.90;;;;;;5052077;28;20205;-80
2022/11/13 08:40:35;;;;;;;26.23;22.70;;;8.90;99.90;;;;;;5052342;28;20198;-79
2022/11/13 08:43:03;;;;;;;25.63;22.37;;;8.90;99.90;;;;;;5050113;28;20214;-79
2022/11/13 08:45:31;;;;;;;26.53;22.87;;;9.00;99.90;;;;;;5045466;28;20197;-80
2022/11/13 08:48:00;;;;;;;27.43;22.97;;;9.00;99.90;;;;;;5051997;28;20264;-79
2022/11/13 08:50:28;;;;;;;27.73;24.40;;;9.10;99.90;;;;;;5049100;28;20234;-79
2022/11/13 08:52:55;;;;;;;24.23;21.60;;;9.10;99.90;;;;;;5034126;28;20226;-79
2022/11/13 08:55:22;;;;;;;28.67;21.50;;;9.20;99.90;;;;;;5032780;28;20191;-79
2022/11/13 08:57:51;;;;;;;25.67;21.90;;;9.20;99.90;;;;;;5031880;28;20683;-80
2022/11/13 09:00:19;;;;;;;25.20;21.33;;;9.30;99.90;;;;;;5031721;28;20206;-79
2022/11/13 09:02:46;;;;;;;24.43;21.10;;;9.40;99.90;;;;;;5032052;28;20281;-81
2022/11/13 09:05:13;;;;;;;26.07;21.77;;;9.40;99.90;;;;;;5031667;28;20301;-79
2022/11/13 09:07:40;;;;;;;27.10;21.90;;;9.40;99.90;;;;;;5032341;28;20198;-79
2022/11/13 09:10:08;;;;;;;56.20;30.27;;;9.50;99.90;;;;;;5032020;28;20497;-79
2022/11/13 09:12:34;;;;;;;31.53;22.47;;;9.50;99.90;;;;;;5031049;28;20213;-79
2022/11/13 09:15:03;;;;;;;24.97;21.00;;;9.50;99.90;;;;;;5032352;28;20229;-78
2022/11/13 09:17:29;;;;;;;22.97;20.57;;;9.60;99.90;;;;;;5031722;28;20218;-79
2022/11/13 09:19:56;;;;;;;24.73;21.73;;;9.60;99.90;;;;;;5031958;28;20194;-78
2022/11/13 09:22:23;;;;;;;21.60;19.17;;;9.70;99.90;;;;;;5032255;28;20540;-79
2022/11/13 09:24:50;;;;;;;20.47;18.13;;;9.70;99.90;;;;;;5031679;28;20276;-79
2022/11/13 09:27:17;;;;;;;21.53;19.13;;;9.70;99.90;;;;;;5043242;28;20202;-78
2022/11/13 09:29:44;;;;;;;20.50;18.30;;;9.70;99.90;;;;;;5052045;28;20239;-78
2022/11/13 09:32:12;;;;;;;19.57;17.43;;;9.80;99.90;;;;;;5051497;28;20479;-78
2022/11/13 09:34:39;;;;;;;21.13;18.67;;;9.80;99.90;;;;;;5051841;28;20197;-79
2022/11/13 09:37:06;;;;;;;19.63;17.63;;;9.90;99.90;;;;;;5040220;28;20516;-79
2022/11/13 09:39:33;;;;;;;23.23;19.33;;;9.90;99.90;;;;;;5030887;28;20199;-79
2022/11/13 09:42:10;;;;;;;21.17;18.97;;;10.00;99.90;;;;;;5032228;28;20217;-79
2022/11/13 09:44:43;;;;;;;21.33;19.10;;;10.00;99.90;;;;;;5034825;28;20209;-78
2022/11/13 09:47:18;;;;;;;24.47;19.37;;;10.10;99.90;;;;;;5039246;28;20194;-79
2022/11/13 09:49:49;;;;;;;21.60;17.63;;;10.20;99.90;;;;;;5035312;28;20241;-79
2022/11/13 09:52:18;;;;;;;20.03;17.93;;;10.20;99.90;;;;;;5035460;28;20289;-79
2022/11/13 09:54:45;;;;;;;19.20;17.30;;;10.30;99.90;;;;;;5045437;28;20747;-77
2022/11/13 09:57:23;;;;;;;19.40;17.17;;;10.40;99.90;;;;;;5054748;28;20216;-77
2022/11/13 09:59:54;;;;;;;19.57;17.57;;;10.40;99.90;;;;;;5054476;28;20190;-77
2022/11/13 10:02:29;;;;;;;17.83;16.00;;;10.50;99.90;;;;;;5055476;28;20196;-78
2022/11/13 10:05:04;;;;;;;17.43;15.43;;;10.60;99.90;;;;;;5054147;28;20213;-78
2022/11/13 10:07:37;;;;;;;18.47;16.53;;;10.60;99.90;;;;;;5054002;28;20193;-78
2022/11/13 10:10:24;;;;;;;19.17;17.10;;;10.60;99.90;;;;;;5052549;28;20242;-77
2022/11/13 10:12:54;;;;;;;20.00;17.27;;;10.70;99.90;;;;;;5034903;28;20209;-78
2022/11/13 10:15:21;;;;;;;17.50;15.63;;;10.80;99.90;;;;;;5033799;28;20591;-78
2022/11/13 10:17:53;;;;;;;18.33;15.40;;;10.90;99.90;;;;;;5035259;28;20526;-78
2022/11/13 10:20:23;;;;;;;17.87;15.97;;;11.00;99.90;;;;;;5054446;28;20646;-79
2022/11/13 10:22:53;;;;;;;15.57;13.97;;;11.20;99.90;;;;;;5043497;28;20206;-80
2022/11/13 10:25:22;;;;;;;15.43;13.83;;;11.20;99.90;;;;;;5051443;28;20201;-78
2022/11/13 10:27:54;;;;;;;15.30;13.73;;;11.30;99.90;;;;;;5054670;28;20283;-79
2022/11/13 10:30:21;;;;;;;14.97;13.13;;;11.40;99.90;;;;;;5054240;28;20715;-79
2022/11/13 10:32:49;;;;;;;13.93;11.63;;;11.50;99.90;;;;;;5050423;28;20202;-79
2022/11/13 10:35:32;;;;;;;13.17;11.77;;;11.60;99.90;;;;;;5053803;28;20194;-79
2022/11/13 10:38:03;;;;;;;12.10;10.90;;;11.70;99.90;;;;;;5045062;28;20218;-79
2022/11/13 10:40:32;;;;;;;12.53;10.80;;;11.80;99.90;;;;;;5051416;28;20198;-79
2022/11/13 10:43:07;;;;;;;11.63;10.27;;;11.90;99.90;;;;;;5053591;28;20202;-79
2022/11/13 10:45:34;;;;;;;10.97;9.30;;;12.00;99.90;;;;;;5051302;28;20262;-80
2022/11/13 10:48:02;;;;;;;9.20;8.30;;;12.10;99.90;;;;;;5034641;28;20477;-80
2022/11/13 10:50:31;;;;;;;9.37;8.30;;;12.20;99.90;;;;;;5053154;28;20560;-79
2022/11/13 10:52:58;;;;;;;9.10;8.10;;;12.30;99.90;;;;;;5054833;28;20251;-79
2022/11/13 10:55:35;;;;;;;9.53;8.07;;;12.40;99.90;;;;;;5053096;28;20202;-79
2022/11/13 10:58:11;;;;;;;8.47;7.33;;;12.50;99.90;;;;;;5054013;28;20193;-79
2022/11/13 11:00:40;;;;;;;8.67;7.43;;;12.60;99.90;;;;;;5054687;28;20182;-79
2022/11/13 11:03:14;;;;;;;8.33;7.27;;;12.70;99.90;;;;;;5053284;28;20210;-78
2022/11/13 11:05:52;;;;;;;7.10;6.40;;;12.80;99.90;;;;;;5054446;28;20285;-79
2022/11/13 11:08:24;;;;;;;7.20;6.10;;;12.90;99.90;;;;;;5034730;28;20199;-80
2022/11/13 11:13:43;;;;;;;5.27;4.77;;;13.10;99.90;;;;;;5033816;28;20299;-79
2022/11/13 11:16:13;;;;;;;4.50;4.10;;;13.10;99.90;;;;;;5034616;28;20212;-80
2022/11/13 11:18:46;;;;;;;6.47;3.87;;;13.20;99.90;;;;;;5033774;28;20220;-80
2022/11/13 11:21:17;;;;;;;4.10;3.70;;;13.30;99.90;;;;;;5034349;28;20198;-81
2022/11/13 11:23:48;;;;;;;4.73;3.70;;;13.40;99.90;;;;;;5033966;28;20286;-80
2022/11/13 11:26:20;;;;;;;5.83;3.53;;;13.40;99.90;;;;;;5034191;28;20191;-81
2022/11/13 11:28:53;;;;;;;5.17;3.70;;;13.50;99.90;;;;;;5034502;28;20757;-80
2022/11/13 11:31:27;;;;;;;4.07;3.23;;;13.60;99.90;;;;;;5033938;28;20233;-81
2022/11/13 11:33:59;;;;;;;3.47;3.00;;;13.70;99.90;;;;;;5034075;28;20198;-79
2022/11/13 11:36:34;;;;;;;4.97;2.50;;;13.80;55.70;;;;;;5033900;28;20203;-79
2022/11/13 11:39:15;;;;;;;3.13;2.83;;;13.90;53.80;;;;;;5033058;28;20216;-79
2022/11/13 11:41:48;;;;;;;3.83;3.10;;;13.90;79.30;;;;;;5033273;28;20281;-80
2022/11/13 11:44:22;;;;;;;2.93;2.63;;;13.90;73.80;;;;;;5046249;28;20200;-81
2022/11/13 11:46:49;;;;;;;4.23;2.90;;;14.00;55.90;;;;;;5053577;28;20190;-80
2022/11/13 11:49:20;;;;;;;3.47;2.57;;;14.10;1.00;;;;;;5053619;28;20521;-81
2022/11/13 11:51:59;;;;;;;3.00;2.30;;;14.10;1.00;;;;;;5048292;28;20241;-81
2022/11/13 11:54:39;;;;;;;3.97;2.70;;;14.20;1.00;;;;;;5033279;28;20190;-80
2022/11/13 11:57:19;;;;;;;3.53;3.17;;;14.30;1.00;;;;;;5033804;28;20501;-81
2022/11/13 12:00:02;;;;;;;4.93;3.47;;;14.30;1.00;;;;;;5044678;28;20206;-79
2022/11/13 12:02:58;;;;;;;4.00;3.57;;;14.40;11.70;;;;;;5033213;28;20206;-80
2022/11/13 12:05:30;;;;;;;4.90;3.80;;;14.40;4.40;;;;;;5033386;28;20274;-79
2022/11/13 12:08:08;;;;;;;5.43;3.83;;;14.50;17.00;;;;;;5051760;28;20266;-79
2022/11/13 12:10:42;;;;;;;5.80;3.97;;;14.50;29.90;;;;;;5046506;28;20209;-80
2022/11/13 12:13:21;;;;;;;4.25;3.53;;;14.50;32.90;;;;;;5052578;28;20766;-81
2022/11/13 12:15:55;;;;;;;4.13;3.72;;;14.50;5.80;;;;;;5046742;28;20228;-80
2022/11/13 12:18:32;;;;;;;3.92;3.00;;;14.60;4.90;;;;;;5053185;28;20289;-81
2022/11/13 12:21:09;;;;;;;5.35;3.78;;;14.60;7.80;;;;;;5045306;28;20208;-80
2022/11/13 12:23:52;;;;;;;6.65;2.95;;;14.60;1.00;;;;;;5052737;28;20185;-81
2022/11/13 12:26:24;;;;;;;4.75;3.53;;;14.60;1.00;;;;;;5058673;28;20201;-81
2022/11/13 12:29:00;;;;;;;3.13;2.80;;;14.60;1.00;;;;;;5059714;28;20194;-81
2022/11/13 12:31:40;;;;;;;5.38;3.40;;;14.60;1.00;;;;;;5052458;28;20275;-80
2022/11/13 12:34:19;;;;;;;3.47;3.15;;;14.60;1.00;;;;;;5049218;28;20217;-82
2022/11/13 12:36:48;;;;;;;5.47;3.60;;;14.60;1.00;;;;;;5051685;28;20210;-80
2022/11/13 12:39:32;;;;;;;4.07;3.63;;;14.60;1.00;;;;;;5048645;28;20199;-79
2022/11/13 12:42:04;;;;;;;3.28;3.03;;;14.60;1.00;;;;;;5032066;28;20285;-79
2022/11/13 12:44:39;;;;;;;3.35;3.05;;;14.60;1.00;;;;;;5032873;28;20218;-79
2022/11/13 12:47:08;;;;;;;7.70;4.10;;;14.60;1.00;;;;;;5031789;28;20205;-79
2022/11/13 12:49:37;;;;;;;4.38;3.72;;;14.60;1.00;;;;;;5030315;28;20542;-79
2022/11/13 12:52:17;;;;;;;3.40;3.10;;;14.60;1.00;;;;;;5031350;28;20213;-79